Ottawa Gatineau Airport
CYND : now visible

Airfield :











YOU CAN JOIN US ON...

 
LOGIN :

Register | Disclaimer

   EN    FR    IT 

 









Legend :    VFR   Marginal VFR   IFR   Intensive IFR   Very Intensive IFR
Visi :
Ceiling :
>= 8 km
>= 3000ft
5 to 8 km
1000 to 3000 ft
1500m to 5 km
500 to 1000 ft
800 to 1500m
200 to 500 ft
< 800m
< 200 ft
Symbols :   Thunderstorms  Fog  Heavy snow  Heavy precipitations  Wind > 20 kt






- Airport Elevation : 211 ft
- IATA code : YND


CYND - Ottawa Gatineau

CURRENT METAR :
  • 181700Z 22005KT 120V240 15SM FEW025 FEW100 FEW220 31/24 A3010 RMK CU1AC1CI1 AC TR SLP194 DENSITY ALT 1900FT

EXPIRED METARs :
  • 181600Z 25005KT 200V280 15SM FEW025CB FEW100 FEW220 29/22 A3011 RMK CB1AC1CI2 CB TR AC TR SLP197 DENSITY ALT 1700FT
  • 181500Z 22004KT 180V260 15SM FEW024CB FEW250 28/23 A3012 RMK CB1CI1 DIST CB W SLP201 DENSITY ALT 1600FT
  • 181400Z 23006KT 180V270 12SM FEW050 FEW080 BKN250 27/21 A3014 RMK CU1AC1CI5 CU TR SLP206 DENSITY ALT 1400FT

TAF TAF CYND
Valid from the 18 at 18:00 until the 19 at 01:00 UTC


181740Z 1818/1901 22005KT P6SM SCT060
TEMPO 1818/1822 BKN060
FM182200 23010KT P6SM BKN060
PROB30 1822/1824 VRB20G35KT 1SM +TSRA BR BKN008 OVC020CB RMK NXT FCST BY 191300Z
CZUL FIR / North America



MET'MAP, your aeronautical weather chart ! - Copyright ORBIFLY December 2007 - Disclaimer

ORBIFLY MET'MAP TEAM :

Programming & Development : Alexandra Zaïnal
Original concept : Baudouin d'Aumeries
Technical & hardware support : Manuel Goepfert
Assistance : Marc-Olivier Méhu




SOURCES & CREDITS :

   NOAA       Earth
Advisory